Time;durP1;ratioP1;P1;durP2;ratioP2;P2;SDS_P1;SDS_P2;PMS_P1;PMS_P2;Temp;Humidity;BMP_temperature;BMP_pressure;BME280_temperature;BME280_humidity;BME280_pressure;Samples;Min_cycle;Max_cycle;Signal;HPM_P1;HPM_P2
2021/12/01 00:02:02;;;;;;;3.90;2.40;;;;;;;3.29;73.24;98774.72;108577;1282;22358;-74
2021/12/01 00:04:32;;;;;;;5.80;3.10;;;;;;;3.26;73.32;98772.92;108471;1281;22113;-73
2021/12/01 00:07:01;;;;;;;4.60;3.00;;;;;;;3.26;73.54;98778.57;108221;1286;22020;-73
2021/12/01 00:09:30;;;;;;;5.20;3.20;;;;;;;3.25;73.51;98784.33;107742;1291;21989;-73
2021/12/01 00:11:59;;;;;;;3.90;3.00;;;;;;;3.26;73.74;98787.43;107938;1291;22777;-73
2021/12/01 00:14:28;;;;;;;4.80;3.00;;;;;;;3.26;73.88;98787.02;107487;1295;22967;-73
2021/12/01 00:16:58;;;;;;;4.10;3.10;;;;;;;3.27;73.96;98798.92;107497;1298;23110;-73
2021/12/01 00:19:29;;;;;;;4.20;3.10;;;;;;;3.25;73.95;98807.83;107627;1291;22005;-73
2021/12/01 00:21:58;;;;;;;6.30;3.60;;;;;;;3.24;74.04;98810.72;107973;1291;23814;-74
2021/12/01 00:24:28;;;;;;;3.80;2.50;;;;;;;3.20;74.05;98816.24;107961;1285;24991;-74
2021/12/01 00:26:57;;;;;;;4.50;3.00;;;;;;;3.16;74.19;98826.73;108416;1282;21990;-73
2021/12/01 00:29:25;;;;;;;4.50;2.90;;;;;;;3.11;74.29;98836.11;108600;1282;22007;-74
2021/12/01 00:31:55;;;;;;;4.00;3.10;;;;;;;3.08;74.44;98846.02;108797;1281;22025;-74
2021/12/01 00:34:26;;;;;;;4.00;2.90;;;;;;;3.06;74.70;98847.21;108538;1281;23069;-72
2021/12/01 00:36:55;;;;;;;4.80;3.90;;;;;;;3.03;74.73;98849.78;108447;1281;24349;-74
2021/12/01 00:39:24;;;;;;;5.30;3.20;;;;;;;2.99;74.88;98855.79;108636;1275;23685;-73
2021/12/01 00:41:55;;;;;;;5.80;4.20;;;;;;;2.95;75.04;98861.52;109338;1273;21979;-74
2021/12/01 00:44:24;;;;;;;4.90;4.10;;;;;;;2.92;75.16;98869.14;109102;1275;22740;-74
2021/12/01 00:47:05;;;;;;;4.60;3.90;;;;;;;2.89;75.32;98884.77;108940;1275;23016;-73
2021/12/01 00:49:35;;;;;;;6.10;4.50;;;;;;;2.81;75.37;98890.25;108999;1275;22229;-75
2021/12/01 00:52:04;;;;;;;5.40;4.60;;;;;;;2.75;75.51;98900.59;109091;1273;22002;-73
2021/12/01 00:54:34;;;;;;;5.40;4.80;;;;;;;2.71;75.67;98913.34;108989;1272;23716;-73
2021/12/01 00:57:03;;;;;;;5.60;5.10;;;;;;;2.68;75.78;98923.21;109016;1272;21980;-73
2021/12/01 00:59:34;;;;;;;5.90;4.90;;;;;;;2.66;75.92;98928.30;109121;1272;23669;-74
2021/12/01 01:02:03;;;;;;;6.00;4.90;;;;;;;2.63;75.93;98933.44;109007;1272;22842;-74
2021/12/01 01:04:33;;;;;;;5.30;4.70;;;;;;;2.59;76.01;98939.06;108663;1281;22027;-73
2021/12/01 01:07:02;;;;;;;5.50;5.00;;;;;;;2.55;76.15;98949.71;108777;1279;23599;-74
2021/12/01 01:09:32;;;;;;;7.20;5.60;;;;;;;2.50;76.21;98954.54;108441;1281;23075;-72
2021/12/01 01:17:38;;;;;;;5.60;4.90;;;;;;;2.42;76.30;98981.94;108480;1281;180844;-72
2021/12/01 01:20:12;;;;;;;5.60;5.10;;;;;;;2.40;76.43;98986.66;108572;1281;24390;-72
2021/12/01 01:22:41;;;;;;;6.00;5.50;;;;;;;2.40;76.37;98994.45;108904;1275;23563;-72
2021/12/01 01:25:11;;;;;;;5.30;4.80;;;;;;;2.40;76.43;98992.70;108992;1271;22033;-73
2021/12/01 01:27:40;;;;;;;5.40;4.60;;;;;;;2.38;76.25;98997.79;109157;1272;21976;-73
2021/12/01 01:30:10;;;;;;;4.90;4.40;;;;;;;2.36;76.18;99004.19;108735;1278;21980;-72
2021/12/01 01:32:39;;;;;;;5.80;5.20;;;;;;;2.35;76.11;99010.14;108417;1285;23691;-73
2021/12/01 01:35:08;;;;;;;5.70;5.20;;;;;;;2.38;75.98;99009.28;108013;1290;22850;-73
2021/12/01 01:37:37;;;;;;;6.40;5.80;;;;;;;2.38;75.78;99015.67;107957;1291;24449;-73
2021/12/01 01:40:09;;;;;;;6.30;5.80;;;;;;;2.39;75.60;99018.55;107945;1291;22201;-73
2021/12/01 01:42:38;;;;;;;6.90;6.30;;;;;;;2.40;75.46;99033.41;108019;1291;21714;-73
2021/12/01 01:45:08;;;;;;;6.60;6.00;;;;;;;2.38;75.26;99043.27;107753;1291;23630;-73
2021/12/01 01:47:58;;;;;;;6.80;6.20;;;;;;;2.38;75.27;99048.88;107992;1287;23109;-72
2021/12/01 01:50:36;;;;;;;7.10;5.90;;;;;;;2.39;75.16;99055.02;108443;1281;23691;-74
2021/12/01 01:53:23;;;;;;;7.10;6.50;;;;;;;2.41;75.14;99059.17;108847;1272;22262;-74
2021/12/01 01:55:59;;;;;;;6.40;5.80;;;;;;;2.39;74.87;99063.48;108691;1279;22026;-73
2021/12/01 01:58:29;;;;;;;7.00;6.40;;;;;;;2.38;74.88;99071.58;108500;1282;22765;-74
2021/12/01 02:01:08;;;;;;;7.70;7.10;;;;;;;2.38;74.76;99078.78;108251;1287;21988;-72
2021/12/01 02:03:42;;;;;;;6.70;6.10;;;;;;;2.36;74.70;99090.91;107653;1292;23701;-73
2021/12/01 02:06:14;;;;;;;7.30;6.60;;;;;;;2.36;74.67;99091.20;107948;1290;22000;-73
2021/12/01 02:08:44;;;;;;;6.80;6.10;;;;;;;2.37;74.55;99090.08;107533;1298;23707;-73
2021/12/01 02:11:17;;;;;;;7.80;7.10;;;;;;;2.38;74.56;99093.14;106851;1304;22471;-73
2021/12/01 02:13:47;;;;;;;6.60;6.00;;;;;;;2.39;74.39;99098.60;107017;1301;24068;-73
2021/12/01 02:16:19;;;;;;;7.20;6.50;;;;;;;2.43;74.47;99098.80;107246;1299;22011;-74
2021/12/01 02:18:49;;;;;;;8.00;7.20;;;;;;;2.47;74.31;99102.02;107448;1294;22038;-74
2021/12/01 02:21:31;;;;;;;6.80;6.20;;;;;;;2.50;74.14;99111.82;107786;1288;23059;-73
2021/12/01 02:24:05;;;;;;;;;;;;;;;2.51;74.00;99114.09;108022;1288;22966;-73
2021/12/01 02:26:44;;;;;;;7.10;6.40;;;;;;;2.47;74.02;99117.33;108316;1281;23047;-72
2021/12/01 02:29:19;;;;;;;7.10;6.40;;;;;;;2.47;73.85;99117.85;108588;1275;22333;-73
2021/12/01 02:31:50;;;;;;;8.10;7.40;;;;;;;2.50;73.89;99123.06;109211;1275;21976;-73
2021/12/01 02:34:24;;;;;;;7.60;7.00;;;;;;;2.54;73.78;99126.50;109023;1275;21996;-73
2021/12/01 02:36:58;;;;;;;8.70;7.90;;;;;;;2.57;73.63;99130.71;108913;1275;23685;-73
2021/12/01 02:39:28;;;;;;;8.60;7.80;;;;;;;2.61;73.57;99141.02;108913;1275;23068;-72
2021/12/01 02:42:05;;;;;;;7.80;7.00;;;;;;;2.63;73.35;99149.17;108910;1275;21998;-72
2021/12/01 02:44:35;;;;;;;7.20;6.60;;;;;;;2.63;73.21;99148.13;108500;1281;22851;-72
2021/12/01 02:47:05;;;;;;;8.10;7.30;;;;;;;2.65;73.19;99153.66;108627;1281;22916;-73
2021/12/01 02:49:34;;;;;;;6.60;6.00;;;;;;;2.68;73.23;99156.98;108532;1281;22099;-72
2021/12/01 02:52:04;;;;;;;7.00;6.40;;;;;;;2.70;73.16;99162.72;108326;1285;22577;-73
2021/12/01 02:54:33;;;;;;;7.40;6.70;;;;;;;2.70;73.03;99165.84;108186;1285;22122;-73
2021/12/01 02:57:03;;;;;;;7.00;6.40;;;;;;;2.71;72.95;99170.26;108085;1288;23640;-73
2021/12/01 02:59:33;;;;;;;8.00;7.10;;;;;;;2.73;72.96;99179.67;108027;1288;23722;-73
2021/12/01 03:02:02;;;;;;;8.10;7.30;;;;;;;2.77;73.04;99183.83;108075;1284;22005;-73
2021/12/01 03:04:32;;;;;;;7.90;7.10;;;;;;;2.82;73.07;99187.78;108407;1282;22045;-73
2021/12/01 03:07:03;;;;;;;9.30;8.10;;;;;;;2.86;72.89;99189.78;108471;1282;21986;-73
2021/12/01 03:09:32;;;;;;;12.20;7.80;;;;;;;2.85;72.73;99188.73;108457;1278;22031;-73
2021/12/01 03:12:01;;;;;;;8.30;6.80;;;;;;;2.86;72.68;99185.77;108723;1278;22025;-73
2021/12/01 03:14:30;;;;;;;10.30;6.00;;;;;;;2.85;72.68;99185.80;108366;1281;22100;-73
2021/12/01 03:16:59;;;;;;;6.80;5.40;;;;;;;2.87;72.73;99183.89;108436;1281;24300;-74
2021/12/01 03:19:28;;;;;;;6.50;5.90;;;;;;;2.90;72.70;99178.63;108721;1280;23641;-72
2021/12/01 03:21:57;;;;;;;5.30;4.60;;;;;;;2.89;72.54;99178.11;108351;1286;24028;-73
2021/12/01 03:24:32;;;;;;;6.00;5.00;;;;;;;2.89;72.55;99186.30;107679;1291;22006;-73
2021/12/01 03:27:01;;;;;;;6.30;5.70;;;;;;;2.90;72.46;99191.10;107689;1291;23704;-73
2021/12/01 03:29:30;;;;;;;8.00;5.80;;;;;;;2.90;72.54;99189.70;107698;1291;23811;-73
2021/12/01 03:32:00;;;;;;;5.50;5.00;;;;;;;2.90;72.46;99191.05;107785;1286;21988;-73
2021/12/01 03:34:29;;;;;;;5.40;4.90;;;;;;;2.89;72.30;99187.23;108382;1286;23791;-73
2021/12/01 03:36:59;;;;;;;6.10;5.50;;;;;;;2.83;72.20;99187.43;108246;1286;22281;-73
2021/12/01 03:39:28;;;;;;;5.70;5.10;;;;;;;2.80;72.27;99187.27;108290;1281;22029;-74
2021/12/01 03:41:57;;;;;;;6.40;5.80;;;;;;;2.80;72.40;99191.67;108589;1275;22000;-73
2021/12/01 03:44:27;;;;;;;8.70;6.10;;;;;;;2.79;72.37;99192.33;109016;1275;23688;-74
2021/12/01 03:46:56;;;;;;;8.70;6.50;;;;;;;2.77;72.31;99190.59;108941;1275;22211;-73
2021/12/01 03:49:25;;;;;;;9.20;6.60;;;;;;;2.77;72.34;99193.53;109218;1274;22324;-75
2021/12/01 03:51:54;;;;;;;9.20;7.50;;;;;;;2.76;72.19;99190.13;109100;1273;23818;-73
2021/12/01 03:54:25;;;;;;;8.80;6.40;;;;;;;2.75;72.27;99181.73;109038;1275;23083;-73
2021/12/01 03:56:54;;;;;;;6.80;6.10;;;;;;;2.73;72.24;99186.98;109202;1273;23777;-72
2021/12/01 03:59:23;;;;;;;7.40;6.70;;;;;;;2.72;72.36;99188.77;109031;1274;23478;-73
2021/12/01 04:01:52;;;;;;;7.50;6.10;;;;;;;2.73;72.46;99195.48;109113;1275;22288;-73
2021/12/01 04:04:22;;;;;;;8.00;5.50;;;;;;;2.73;72.39;99198.90;108746;1279;22037;-73
2021/12/01 04:06:51;;;;;;;7.90;6.20;;;;;;;2.74;72.45;99200.96;108681;1279;23146;-73
2021/12/01 04:09:21;;;;;;;8.30;6.60;;;;;;;2.70;72.16;99195.05;108724;1281;23061;-72
2021/12/01 04:11:51;;;;;;;8.20;6.30;;;;;;;2.68;72.39;99190.54;108708;1281;23616;-72
2021/12/01 04:14:21;;;;;;;7.50;6.50;;;;;;;2.68;72.42;99187.75;108147;1286;22020;-72
2021/12/01 04:16:50;;;;;;;7.00;6.30;;;;;;;2.66;72.36;99182.61;108227;1286;23702;-73
2021/12/01 04:19:20;;;;;;;7.10;6.50;;;;;;;2.62;72.42;99179.32;108069;1286;22908;-72
2021/12/01 04:21:49;;;;;;;8.00;7.10;;;;;;;2.60;72.52;99174.77;108382;1281;22010;-72
2021/12/01 04:24:19;;;;;;;7.30;6.60;;;;;;;2.56;72.37;99168.00;108547;1281;24211;-72
2021/12/01 04:26:48;;;;;;;9.20;7.20;;;;;;;2.52;72.36;99165.80;108461;1281;23034;-73
2021/12/01 04:29:17;;;;;;;7.00;6.40;;;;;;;2.48;72.44;99163.09;108422;1281;21992;-73
2021/12/01 04:31:47;;;;;;;8.10;5.70;;;;;;;2.43;72.51;99159.54;108545;1275;23637;-72
2021/12/01 04:34:16;;;;;;;7.30;6.60;;;;;;;2.37;72.50;99155.45;109003;1275;23125;-73
2021/12/01 04:36:48;;;;;;;6.80;5.60;;;;;;;2.31;72.60;99153.69;108988;1275;23717;-73
2021/12/01 04:39:19;;;;;;;7.50;6.30;;;;;;;2.28;72.73;99145.99;109251;1275;22996;-72
2021/12/01 04:41:55;;;;;;;7.70;6.80;;;;;;;2.24;72.72;99155.30;109029;1275;22006;-73
2021/12/01 04:44:26;;;;;;;6.80;5.80;;;;;;;2.19;72.71;99165.33;109079;1275;21977;-72
2021/12/01 04:46:56;;;;;;;8.30;7.00;;;;;;;2.16;72.97;99167.15;108573;1281;21978;-72
2021/12/01 04:49:26;;;;;;;11.10;9.00;;;;;;;2.15;73.25;99171.23;108504;1280;21980;-73
2021/12/01 04:51:57;;;;;;;9.10;8.10;;;;;;;2.16;73.45;99172.91;108444;1282;23679;-73
2021/12/01 04:54:27;;;;;;;12.30;8.60;;;;;;;2.17;73.55;99173.00;108498;1281;22836;-73
2021/12/01 04:56:57;;;;;;;9.00;7.30;;;;;;;2.20;73.72;99178.25;108169;1287;22020;-73
2021/12/01 04:59:27;;;;;;;11.20;8.60;;;;;;;2.22;73.86;99177.88;108235;1285;22018;-73
2021/12/01 05:01:56;;;;;;;8.70;7.90;;;;;;;2.24;73.82;99188.63;108113;1285;22014;-73
2021/12/01 05:04:26;;;;;;;10.50;8.90;;;;;;;2.27;73.93;99189.92;108421;1281;22737;-73
2021/12/01 05:06:56;;;;;;;11.70;10.10;;;;;;;2.30;74.01;99187.83;108102;1286;23039;-73
2021/12/01 05:09:25;;;;;;;11.20;9.40;;;;;;;2.33;74.00;99185.88;107772;1292;23075;-73
2021/12/01 05:11:54;;;;;;;9.60;8.60;;;;;;;2.33;73.94;99185.02;107266;1298;22044;-72
2021/12/01 05:14:27;;;;;;;10.30;6.70;;;;;;;2.35;74.15;99188.79;107427;1291;22042;-73
2021/12/01 05:16:58;;;;;;;9.60;7.80;;;;;;;2.39;74.28;99185.84;107383;1295;24460;-72
2021/12/01 05:19:31;;;;;;;8.00;7.20;;;;;;;2.42;74.27;99179.33;106892;1303;23664;-72
2021/12/01 05:22:03;;;;;;;9.70;8.10;;;;;;;2.41;74.06;99176.09;106457;1303;23679;-73
2021/12/01 05:24:35;;;;;;;8.70;7.80;;;;;;;2.37;74.01;99168.10;106936;1298;22023;-73
2021/12/01 05:27:07;;;;;;;12.00;8.40;;;;;;;2.34;73.94;99163.70;107040;1298;22027;-73
2021/12/01 05:29:36;;;;;;;9.30;7.80;;;;;;;2.30;73.86;99154.19;107145;1294;22006;-73
2021/12/01 05:32:06;;;;;;;10.70;8.90;;;;;;;2.25;74.09;99152.58;107711;1293;22014;-73
2021/12/01 05:34:46;;;;;;;15.60;14.10;;;;;;;2.23;74.19;99155.38;107720;1288;21999;-73
2021/12/01 05:37:31;;;;;;;20.00;16.30;;;;;;;2.14;74.15;99158.66;108285;1281;22315;-73
2021/12/01 05:40:02;;;;;;;19.20;17.20;;;;;;;2.09;74.38;99163.83;108442;1282;21979;-73
2021/12/01 05:42:33;;;;;;;23.40;20.90;;;;;;;2.06;74.34;99169.10;108621;1281;23060;-73
2021/12/01 05:45:16;;;;;;;19.40;17.40;;;;;;;2.03;74.52;99172.80;108589;1275;23764;-73
2021/12/01 05:47:47;;;;;;;20.60;18.50;;;;;;;1.98;74.46;99175.79;108974;1274;22158;-74
2021/12/01 05:50:17;;;;;;;22.60;20.30;;;;;;;1.94;74.61;99171.30;109027;1274;23570;-73
2021/12/01 05:53:50;;;;;;;;;;;;;;;;;;;;;
2021/12/01 05:57:06;;;;;;;29.00;25.80;;;;;;;1.77;74.75;99171.23;108376;1283;23720;-77
2021/12/01 06:00:30;;;;;;;;;;;;;;;;;;;;;
2021/12/01 06:03:43;;;;;;;28.70;23.60;;;;;;;1.63;74.93;99170.60;107782;1292;23603;-77
2021/12/01 06:07:00;;;;;;;26.80;21.60;;;;;;;1.55;75.14;99167.69;107443;1293;22759;-81
2021/12/01 06:09:51;;;;;;;25.10;20.90;;;;;;;1.49;75.27;99163.39;107537;1297;23791;-77
2021/12/01 06:12:22;;;;;;;35.90;30.00;;;;;;;1.44;75.43;99163.31;107426;1298;21998;-76
2021/12/01 06:15:03;;;;;;;41.50;30.00;;;;;;;1.40;75.57;99162.23;107680;1291;22926;-77
2021/12/01 06:17:59;;;;;;;41.80;30.60;;;;;;;1.38;75.82;99163.31;107605;1295;23055;-77
2021/12/01 06:21:24;;;;;;;47.80;29.60;;;;;;;1.34;76.10;99161.78;107386;1298;23844;-76
2021/12/01 06:24:20;;;;;;;43.10;29.50;;;;;;;1.27;76.22;99161.54;107076;1298;23630;-76
2021/12/01 06:26:49;;;;;;;43.30;28.80;;;;;;;1.29;76.57;99160.88;107267;1298;22022;-73
2021/12/01 06:29:18;;;;;;;36.20;26.20;;;;;;;1.30;76.61;99158.04;107384;1298;23707;-73
2021/12/01 06:31:48;;;;;;;25.40;20.70;;;;;;;1.31;76.83;99157.05;107231;1298;23432;-73
2021/12/01 06:34:17;;;;;;;23.90;19.40;;;;;;;1.33;76.94;99156.02;107247;1294;22005;-72
2021/12/01 06:36:46;;;;;;;23.60;19.50;;;;;;;1.34;76.95;99151.02;107881;1287;22490;-72
2021/12/01 06:39:19;;;;;;;24.60;20.50;;;;;;;1.38;77.15;99149.75;107873;1288;22002;-72
2021/12/01 06:41:48;;;;;;;28.50;21.30;;;;;;;1.40;77.09;99147.15;108445;1278;23674;-72
2021/12/01 06:44:20;;;;;;;28.60;20.50;;;;;;;1.44;77.27;99151.73;108771;1277;22372;-73
2021/12/01 06:46:49;;;;;;;28.90;21.20;;;;;;;1.51;77.33;99154.77;108859;1275;22085;-73
2021/12/01 06:49:18;;;;;;;49.30;33.30;;;;;;;1.54;77.29;99152.34;109172;1274;23788;-73
2021/12/01 06:51:47;;;;;;;58.60;39.10;;;;;;;1.54;77.15;99151.30;109005;1275;21979;-72
2021/12/01 06:54:17;;;;;;;46.80;33.30;;;;;;;1.54;77.12;99145.63;109031;1269;22030;-73
2021/12/01 06:56:46;;;;;;;31.20;24.50;;;;;;;1.52;77.00;99144.94;108462;1280;21992;-73
2021/12/01 06:59:15;;;;;;;28.50;22.10;;;;;;;1.52;77.25;99145.57;108456;1279;23763;-73
2021/12/01 07:01:44;;;;;;;27.20;20.80;;;;;;;1.53;77.20;99145.52;108672;1280;21990;-73
2021/12/01 07:04:15;;;;;;;25.50;21.60;;;;;;;1.53;77.29;99144.06;108543;1281;22173;-73
2021/12/01 07:06:45;;;;;;;25.00;19.50;;;;;;;1.57;77.46;99143.27;108449;1284;22029;-80
2021/12/01 07:09:23;;;;;;;24.50;20.00;;;;;;;1.59;77.44;99141.16;108323;1285;22458;-75
2021/12/01 07:11:52;;;;;;;31.80;21.00;;;;;;;1.60;77.48;99134.23;108060;1287;22008;-76
2021/12/01 07:14:22;;;;;;;28.00;21.70;;;;;;;1.63;77.57;99131.58;108279;1281;22728;-74
2021/12/01 07:16:51;;;;;;;33.60;23.40;;;;;;;1.64;77.47;99124.17;108511;1278;21999;-74
2021/12/01 07:19:22;;;;;;;26.70;21.00;;;;;;;1.62;77.44;99116.39;108826;1278;23673;-75
2021/12/01 07:21:51;;;;;;;33.00;24.80;;;;;;;1.63;77.57;99120.78;108488;1280;21980;-73
2021/12/01 07:24:21;;;;;;;33.40;26.40;;;;;;;1.68;77.67;99119.81;108637;1275;22021;-74
2021/12/01 07:26:52;;;;;;;38.30;27.40;;;;;;;1.73;77.69;99113.63;108910;1273;23786;-73
2021/12/01 07:29:22;;;;;;;25.90;19.50;;;;;;;1.77;77.48;99100.30;108529;1281;22228;-73
2021/12/01 07:31:53;;;;;;;27.00;22.00;;;;;;;1.72;77.35;99092.23;108441;1280;21992;-74
2021/12/01 07:34:22;;;;;;;32.10;23.20;;;;;;;1.71;77.34;99088.64;108545;1280;23700;-73
2021/12/01 07:36:51;;;;;;;33.10;26.50;;;;;;;1.73;77.44;99081.17;108593;1280;22015;-73
2021/12/01 07:39:22;;;;;;;33.20;25.10;;;;;;;1.75;77.50;99079.95;108496;1280;22979;-74
2021/12/01 07:41:51;;;;;;;35.30;26.70;;;;;;;1.78;77.59;99083.86;108532;1280;22167;-72
2021/12/01 07:44:20;;;;;;;35.20;28.10;;;;;;;1.77;77.30;99080.48;108475;1282;22491;-72
2021/12/01 07:46:50;;;;;;;44.60;31.20;;;;;;;1.74;77.31;99075.70;108446;1282;23760;-73
2021/12/01 07:49:19;;;;;;;48.10;36.10;;;;;;;1.76;77.34;99071.70;108538;1281;22000;-73
2021/12/01 07:51:48;;;;;;;46.60;31.90;;;;;;;1.79;77.44;99057.31;108395;1281;22510;-73
2021/12/01 07:54:18;;;;;;;71.40;41.10;;;;;;;1.81;77.39;99049.52;108576;1273;21993;-72
2021/12/01 07:56:47;;;;;;;86.90;44.20;;;;;;;1.80;77.24;99043.06;109016;1275;23572;-73
2021/12/01 07:59:18;;;;;;;44.10;28.10;;;;;;;1.74;77.05;99037.55;109068;1274;24123;-72
2021/12/01 08:01:48;;;;;;;39.60;25.70;;;;;;;1.68;77.15;99038.06;108660;1280;24972;-73
2021/12/01 08:04:17;;;;;;;37.60;25.70;;;;;;;1.70;77.47;99037.88;108469;1280;23634;-73
2021/12/01 08:06:46;;;;;;;34.50;22.90;;;;;;;1.76;77.48;99032.34;108590;1280;23112;-73
2021/12/01 08:09:15;;;;;;;38.40;28.40;;;;;;;1.80;77.44;99027.61;108414;1281;22000;-74
2021/12/01 08:11:44;;;;;;;29.40;24.00;;;;;;;1.84;77.56;99021.09;108649;1280;22738;-73
2021/12/01 08:14:13;;;;;;;28.20;22.00;;;;;;;1.88;77.45;99016.41;108717;1280;22851;-74
2021/12/01 08:16:43;;;;;;;35.50;29.00;;;;;;;1.90;77.37;99014.71;108362;1284;23129;-73
2021/12/01 08:19:13;;;;;;;73.40;61.80;;;;;;;1.91;77.30;99005.95;108382;1281;23704;-73
2021/12/01 08:21:46;;;;;;;93.70;83.40;;;;;;;1.89;77.20;99004.84;108845;1278;22084;-74
2021/12/01 08:24:16;;;;;;;80.90;68.40;;;;;;;1.93;77.37;99009.54;108778;1278;22022;-73
2021/12/01 08:26:46;;;;;;;70.30;59.40;;;;;;;2.02;77.64;99010.61;108774;1278;21990;-73
2021/12/01 08:29:16;;;;;;;41.60;29.60;;;;;;;2.13;77.76;99007.25;108791;1277;22006;-73
2021/12/01 08:31:46;;;;;;;35.80;26.50;;;;;;;2.22;77.48;99000.52;108806;1278;21981;-74
2021/12/01 08:34:15;;;;;;;34.40;24.30;;;;;;;2.29;77.40;98995.85;108594;1274;23729;-73
2021/12/01 08:36:46;;;;;;;32.90;23.30;;;;;;;2.39;77.43;98991.26;108974;1274;23682;-73
2021/12/01 08:39:16;;;;;;;24.70;19.30;;;;;;;2.45;77.06;98995.91;108512;1281;23647;-73
2021/12/01 08:41:46;;;;;;;28.80;20.00;;;;;;;2.49;76.99;98993.20;108353;1285;22015;-73
2021/12/01 08:44:15;;;;;;;24.80;17.50;;;;;;;2.58;76.88;98993.56;108418;1282;23605;-72
2021/12/01 08:46:45;;;;;;;21.40;13.70;;;;;;;2.61;76.52;98993.73;108422;1282;23678;-73
2021/12/01 08:49:14;;;;;;;21.80;15.10;;;;;;;2.59;75.98;98983.57;108256;1282;22032;-73
2021/12/01 08:51:43;;;;;;;26.00;16.50;;;;;;;2.57;76.02;98979.52;108389;1282;21992;-75
2021/12/01 08:54:13;;;;;;;22.50;16.60;;;;;;;2.60;75.96;98977.21;108028;1288;23614;-74
2021/12/01 08:56:43;;;;;;;26.60;18.60;;;;;;;2.62;75.86;98971.65;108190;1283;23046;-73
2021/12/01 08:59:12;;;;;;;22.60;15.10;;;;;;;2.64;75.73;98963.42;108513;1282;22990;-73
2021/12/01 09:01:40;;;;;;;23.10;17.30;;;;;;;2.63;75.55;98960.21;108589;1280;22045;-74
2021/12/01 09:04:10;;;;;;;26.50;18.50;;;;;;;2.62;75.40;98957.89;108523;1282;22726;-73
2021/12/01 09:06:40;;;;;;;24.70;18.20;;;;;;;2.66;75.80;98953.98;108361;1282;21989;-74
2021/12/01 09:09:09;;;;;;;33.60;20.40;;;;;;;2.76;76.01;98953.52;108444;1280;24097;-74
2021/12/01 09:11:38;;;;;;;30.00;20.30;;;;;;;2.84;75.74;98955.71;108512;1281;21991;-74
2021/12/01 09:14:07;;;;;;;33.60;21.30;;;;;;;2.91;75.73;98955.85;108225;1286;22042;-74
2021/12/01 09:16:36;;;;;;;32.80;21.20;;;;;;;2.99;75.63;98947.09;108199;1286;22247;-74
2021/12/01 09:19:05;;;;;;;30.60;20.90;;;;;;;3.05;75.16;98938.98;108259;1279;227287;-74
2021/12/01 09:21:36;;;;;;;31.90;21.60;;;;;;;3.03;74.73;98932.73;108449;1281;23132;-73
2021/12/01 09:24:06;;;;;;;32.40;21.10;;;;;;;3.03;74.67;98928.35;108614;1280;23787;-74
2021/12/01 09:26:35;;;;;;;29.80;17.90;;;;;;;3.00;74.13;98917.44;108526;1280;23629;-74
2021/12/01 09:29:04;;;;;;;38.20;24.10;;;;;;;2.94;74.00;98915.02;108446;1280;23678;-73
2021/12/01 09:31:34;;;;;;;31.30;20.70;;;;;;;2.94;74.19;98910.13;108509;1274;22756;-73
2021/12/01 09:34:04;;;;;;;33.50;23.60;;;;;;;2.95;74.13;98906.38;108883;1274;22420;-74
2021/12/01 09:36:33;;;;;;;36.40;24.20;;;;;;;2.99;74.11;98898.55;108921;1274;22036;-74
2021/12/01 09:39:04;;;;;;;32.60;21.80;;;;;;;3.00;74.01;98896.33;108644;1279;21985;-73
2021/12/01 09:41:33;;;;;;;29.60;19.00;;;;;;;2.99;73.89;98893.63;108439;1283;22288;-74
2021/12/01 09:44:03;;;;;;;31.00;22.30;;;;;;;2.96;73.68;98891.36;108414;1279;22046;-73
2021/12/01 09:46:32;;;;;;;29.00;20.00;;;;;;;2.97;73.90;98888.70;108401;1282;23083;-73
2021/12/01 09:49:02;;;;;;;26.00;19.30;;;;;;;2.98;73.82;98883.64;108340;1283;23142;-73
2021/12/01 09:51:31;;;;;;;30.80;22.00;;;;;;;3.00;73.87;98874.80;108374;1282;22046;-73
2021/12/01 09:54:02;;;;;;;28.00;19.90;;;;;;;3.03;73.84;98864.59;108385;1281;23728;-73
2021/12/01 09:56:33;;;;;;;30.40;21.90;;;;;;;3.05;73.83;98857.36;108083;1286;23601;-73
2021/12/01 09:59:03;;;;;;;26.90;20.20;;;;;;;3.05;73.67;98858.43;108411;1286;21574;-73
2021/12/01 10:01:34;;;;;;;33.40;21.40;;;;;;;3.10;73.88;98859.73;108451;1285;22136;-72
2021/12/01 10:04:07;;;;;;;31.80;22.50;;;;;;;3.11;73.80;98847.20;108262;1285;23015;-73
2021/12/01 10:06:36;;;;;;;29.40;20.50;;;;;;;3.12;73.76;98838.34;108393;1282;22273;-71
2021/12/01 10:09:08;;;;;;;25.30;17.70;;;;;;;3.08;73.53;98830.52;108533;1279;22847;-72
2021/12/01 10:11:41;;;;;;;22.00;14.90;;;;;;;3.03;73.60;98825.29;108615;1280;24424;-72
2021/12/01 10:14:22;;;;;;;23.30;14.50;;;;;;;2.97;73.59;98817.86;108500;1282;22061;-75
2021/12/01 10:17:15;;;;;;;22.40;13.90;;;;;;;2.89;73.67;98808.77;108155;1285;21980;-74
2021/12/01 10:19:44;;;;;;;27.40;19.00;;;;;;;2.85;73.83;98812.20;108500;1285;22109;-74
2021/12/01 10:22:13;;;;;;;32.50;20.80;;;;;;;2.88;74.24;98811.20;108644;1280;23688;-74
2021/12/01 10:24:45;;;;;;;30.40;21.20;;;;;;;2.91;74.29;98810.86;108710;1278;22835;-73
2021/12/01 10:27:15;;;;;;;23.90;16.00;;;;;;;2.94;74.47;98802.17;108604;1275;24371;-73
2021/12/01 10:29:50;;;;;;;27.50;17.20;;;;;;;2.94;74.26;98800.44;108691;1278;22091;-73
2021/12/01 10:32:20;;;;;;;26.10;15.40;;;;;;;2.93;74.33;98799.52;108079;1285;22027;-73
2021/12/01 10:34:53;;;;;;;29.10;17.70;;;;;;;2.88;74.37;98789.82;108389;1280;23592;-72
2021/12/01 10:37:29;;;;;;;26.40;16.50;;;;;;;2.84;74.60;98781.33;108572;1280;22037;-73
2021/12/01 10:40:08;;;;;;;29.50;15.40;;;;;;;2.86;74.88;98771.35;108483;1280;22473;-73
2021/12/01 10:43:04;;;;;;;25.60;15.40;;;;;;;2.91;75.08;98769.77;108469;1280;21979;-72
2021/12/01 10:45:40;;;;;;;34.00;19.00;;;;;;;2.94;74.98;98764.83;108558;1280;23074;-73
2021/12/01 10:48:24;;;;;;;24.50;15.40;;;;;;;2.95;75.19;98766.23;108519;1280;21990;-73
2021/12/01 10:50:54;;;;;;;24.40;17.80;;;;;;;3.00;75.36;98758.39;108867;1274;23563;-73
2021/12/01 10:53:25;;;;;;;28.50;19.10;;;;;;;3.09;75.60;98752.88;109127;1273;21982;-73
2021/12/01 10:56:00;;;;;;;23.00;13.90;;;;;;;3.15;75.51;98751.33;109064;1274;23029;-73
2021/12/01 10:58:41;;;;;;;26.50;17.30;;;;;;;3.15;75.25;98745.81;109126;1273;21975;-73
2021/12/01 11:01:25;;;;;;;29.80;19.30;;;;;;;3.09;75.11;98740.82;108945;1274;21991;-73
2021/12/01 11:03:55;;;;;;;23.20;16.40;;;;;;;3.02;75.36;98731.80;109074;1274;21981;-74
2021/12/01 11:06:27;;;;;;;20.00;13.70;;;;;;;3.02;75.54;98730.04;108711;1278;22362;-72
2021/12/01 11:08:58;;;;;;;22.30;14.00;;;;;;;3.05;75.75;98722.27;108594;1278;23779;-73
2021/12/01 11:11:44;;;;;;;28.80;16.90;;;;;;;3.04;75.73;98713.45;108857;1278;22439;-73
2021/12/01 11:14:42;;;;;;;24.60;15.80;;;;;;;3.08;75.92;98700.93;108787;1278;23125;-73
2021/12/01 11:17:12;;;;;;;21.60;14.40;;;;;;;3.12;76.03;98687.99;108813;1278;23685;-73
2021/12/01 11:19:41;;;;;;;16.30;11.20;;;;;;;3.09;75.80;98686.19;108806;1274;23798;-73
2021/12/01 11:22:36;;;;;;;20.60;13.80;;;;;;;3.05;75.86;98677.77;108634;1278;23024;-73
2021/12/01 11:25:25;;;;;;;25.60;14.90;;;;;;;3.02;76.03;98663.61;108987;1274;21970;-74
2021/12/01 11:27:54;;;;;;;25.50;16.50;;;;;;;2.98;76.23;98658.98;109168;1273;23637;-73
2021/12/01 11:30:23;;;;;;;22.70;14.80;;;;;;;2.99;76.32;98651.07;109018;1274;23618;-73
2021/12/01 11:33:17;;;;;;;25.10;17.90;;;;;;;3.01;76.36;98649.27;109098;1274;23106;-73
2021/12/01 11:35:55;;;;;;;21.90;14.70;;;;;;;3.05;76.55;98639.28;109077;1273;24287;-73
2021/12/01 11:38:24;;;;;;;22.00;14.80;;;;;;;3.12;76.64;98632.30;109186;1273;22117;-72
2021/12/01 11:40:56;;;;;;;21.70;13.80;;;;;;;3.17;76.62;98626.90;108879;1274;23721;-72
2021/12/01 11:43:29;;;;;;;26.10;16.30;;;;;;;3.18;76.49;98617.97;108948;1274;22000;-73
2021/12/01 11:45:59;;;;;;;28.50;18.40;;;;;;;3.18;76.54;98610.80;109018;1274;21995;-73
2021/12/01 11:48:51;;;;;;;31.60;19.40;;;;;;;3.20;76.70;98604.66;109123;1274;24024;-72
2021/12/01 11:51:29;;;;;;;;;;;;;;;3.22;76.62;98599.09;109124;1273;21953;-72
2021/12/01 11:54:07;;;;;;;29.50;16.90;;;;;;;3.11;76.67;98589.85;109119;1273;21977;-72
2021/12/01 11:56:39;;;;;;;28.50;17.50;;;;;;;3.11;76.81;98580.66;108820;1273;23069;-72
2021/12/01 11:59:14;;;;;;;;;;;;;;;3.11;76.82;98575.37;109152;1273;24358;-73